createdAt,value
2023-01-23T00:00:17.827Z,5.70
2023-01-23T00:02:46.338Z,5.70
2023-01-23T00:05:14.782Z,5.70
2023-01-23T00:07:42.976Z,5.80
2023-01-23T00:10:12.474Z,5.80
2023-01-23T00:12:43.040Z,5.80
2023-01-23T00:15:13.775Z,5.80
2023-01-23T00:17:41.939Z,5.90
2023-01-23T00:20:11.774Z,5.80
2023-01-23T00:22:40.051Z,5.80
2023-01-23T00:25:09.046Z,5.80
2023-01-23T00:27:37.251Z,5.80
2023-01-23T00:30:07.253Z,5.80
2023-01-23T00:32:36.961Z,5.80
2023-01-23T00:35:05.788Z,5.80
2023-01-23T00:37:33.971Z,5.80
2023-01-23T00:40:02.056Z,5.80
2023-01-23T00:42:30.258Z,5.80
2023-01-23T00:45:01.680Z,5.80
2023-01-23T00:47:30.348Z,5.80
2023-01-23T00:50:00.056Z,5.80
2023-01-23T00:52:29.292Z,5.80
2023-01-23T00:54:57.522Z,5.90
2023-01-23T00:57:25.723Z,5.80
2023-01-23T00:59:53.981Z,5.80
2023-01-23T01:02:22.264Z,5.80
2023-01-23T01:04:50.481Z,5.80
2023-01-23T01:07:19.962Z,5.80
2023-01-23T01:09:48.919Z,5.80
2023-01-23T01:12:19.377Z,5.80
2023-01-23T01:14:47.614Z,5.80
2023-01-23T01:17:16.600Z,5.80
2023-01-23T01:19:44.671Z,5.80
2023-01-23T01:22:12.823Z,5.90
2023-01-23T01:24:43.771Z,5.80
2023-01-23T01:27:11.901Z,5.80
2023-01-23T01:29:40.018Z,5.80
2023-01-23T01:32:08.193Z,5.90
2023-01-23T01:34:36.398Z,5.90
2023-01-23T01:37:04.713Z,5.90
2023-01-23T01:39:33.184Z,5.90
2023-01-23T01:42:02.654Z,5.90
2023-01-23T01:44:52.892Z,5.90
2023-01-23T01:47:21.084Z,5.90
2023-01-23T01:49:49.657Z,5.90
2023-01-23T01:52:19.953Z,6.00
2023-01-23T01:54:50.188Z,5.90
2023-01-23T01:57:22.376Z,5.90
2023-01-23T01:59:57.811Z,5.90
2023-01-23T02:02:29.571Z,5.90
2023-01-23T02:05:02.554Z,5.90
2023-01-23T02:07:35.229Z,5.90
2023-01-23T02:10:04.975Z,5.90
2023-01-23T02:12:35.463Z,5.90
2023-01-23T02:15:06.556Z,5.90
2023-01-23T02:17:36.581Z,5.90
2023-01-23T02:20:11.435Z,5.90
2023-01-23T02:22:45.562Z,5.90
2023-01-23T02:25:33.078Z,5.90
2023-01-23T02:28:02.876Z,5.90
2023-01-23T02:30:35.941Z,5.90
2023-01-23T02:33:11.237Z,5.90
2023-01-23T02:35:40.173Z,5.90
2023-01-23T02:38:12.591Z,5.90
2023-01-23T02:40:43.304Z,5.90
2023-01-23T02:43:21.326Z,6.10
2023-01-23T02:45:56.944Z,5.90
2023-01-23T02:48:25.805Z,5.90
2023-01-23T02:50:53.993Z,5.90
2023-01-23T02:53:22.158Z,5.90
2023-01-23T02:55:53.284Z,5.90
2023-01-23T02:58:42.848Z,5.90
2023-01-23T03:01:14.647Z,5.90
2023-01-23T03:03:46.705Z,5.90
2023-01-23T03:06:15.018Z,5.90
2023-01-23T03:08:49.247Z,5.90
2023-01-23T03:11:19.716Z,5.90
2023-01-23T03:13:49.360Z,5.90
2023-01-23T03:16:17.608Z,6.00
2023-01-23T03:18:54.299Z,5.90
2023-01-23T03:21:23.828Z,5.90
2023-01-23T03:23:52.121Z,5.90
2023-01-23T03:26:20.388Z,5.80
2023-01-23T03:29:09.022Z,5.90
2023-01-23T03:31:37.347Z,5.90
2023-01-23T03:34:05.773Z,5.90
2023-01-23T03:36:37.339Z,5.90
2023-01-23T03:39:24.222Z,5.90
2023-01-23T03:41:53.091Z,5.90
2023-01-23T03:44:24.269Z,5.90
2023-01-23T03:46:53.609Z,5.90
2023-01-23T03:49:22.499Z,5.90
2023-01-23T03:51:58.464Z,5.90
2023-01-23T03:54:26.965Z,5.90
2023-01-23T03:56:55.933Z,5.80
2023-01-23T03:59:57.493Z,5.80
2023-01-23T04:02:30.638Z,5.80
2023-01-23T04:04:58.746Z,5.80
2023-01-23T04:07:27.541Z,5.80
2023-01-23T04:09:56.416Z,5.90
2023-01-23T04:12:24.554Z,5.80
2023-01-23T04:14:53.321Z,5.60
2023-01-23T04:17:22.877Z,5.80
2023-01-23T04:19:51.032Z,5.80
2023-01-23T04:22:19.291Z,5.80
2023-01-23T04:24:49.518Z,5.80
2023-01-23T04:27:17.740Z,5.80
2023-01-23T04:29:47.868Z,5.80
2023-01-23T04:32:16.139Z,5.80
2023-01-23T04:34:49.090Z,5.80
2023-01-23T04:37:17.559Z,5.80
2023-01-23T04:39:47.312Z,5.80
2023-01-23T04:42:18.619Z,5.80
2023-01-23T04:44:52.804Z,5.80
2023-01-23T04:47:32.837Z,5.80
2023-01-23T04:50:04.667Z,5.80
2023-01-23T04:52:36.022Z,5.80
2023-01-23T04:55:05.780Z,5.80
2023-01-23T04:57:34.420Z,5.80
2023-01-23T05:00:14.725Z,5.80
2023-01-23T05:02:43.273Z,5.80
2023-01-23T05:05:13.420Z,5.80
2023-01-23T05:07:42.599Z,5.90
2023-01-23T05:10:16.225Z,5.80
2023-01-23T05:12:44.841Z,5.90
2023-01-23T05:15:13.714Z,5.90
2023-01-23T05:17:43.533Z,5.90
2023-01-23T05:20:14.526Z,6.10
2023-01-23T05:22:52.696Z,5.90
2023-01-23T05:25:26.431Z,5.90
2023-01-23T05:27:57.090Z,5.90
2023-01-23T05:30:26.150Z,5.90
2023-01-23T05:33:03.354Z,5.90
2023-01-23T05:35:33.348Z,5.90
2023-01-23T05:38:02.010Z,5.90
2023-01-23T05:40:30.872Z,6.00
2023-01-23T05:43:21.611Z,5.90
2023-01-23T05:46:19.074Z,5.90
2023-01-23T05:48:51.675Z,5.90
2023-01-23T05:51:23.877Z,5.90
2023-01-23T05:53:54.233Z,5.90
2023-01-23T05:56:23.305Z,5.90
2023-01-23T05:59:10.826Z,6.10
2023-01-23T06:01:58.085Z,5.90
2023-01-23T06:04:44.761Z,5.90
2023-01-23T06:07:22.689Z,5.90
2023-01-23T06:09:54.063Z,6.00
2023-01-23T06:12:22.877Z,6.00
2023-01-23T06:14:51.059Z,6.00
2023-01-23T06:17:19.318Z,6.00
2023-01-23T06:19:48.709Z,6.00
2023-01-23T06:22:17.724Z,6.00
2023-01-23T06:25:03.394Z,6.00
2023-01-23T06:27:31.654Z,6.00
2023-01-23T06:30:03.289Z,6.00
2023-01-23T06:32:33.473Z,6.00
2023-01-23T06:35:02.442Z,6.00
2023-01-23T06:37:35.568Z,6.00
2023-01-23T06:40:06.854Z,6.00
2023-01-23T06:42:35.846Z,6.00
2023-01-23T06:45:04.171Z,6.00
2023-01-23T06:47:33.432Z,6.00
2023-01-23T06:50:02.614Z,6.00
2023-01-23T06:52:34.483Z,6.00
2023-01-23T06:55:07.056Z,6.00
2023-01-23T06:57:36.232Z,5.90
2023-01-23T07:00:06.320Z,5.90
2023-01-23T07:02:35.110Z,5.90
2023-01-23T07:05:03.659Z,5.90
2023-01-23T07:07:31.955Z,5.90
2023-01-23T07:10:00.196Z,5.90
2023-01-23T07:12:29.752Z,5.90
2023-01-23T07:14:58.002Z,5.90
2023-01-23T07:17:34.390Z,5.90
2023-01-23T07:20:03.125Z,5.90
2023-01-23T07:22:31.470Z,5.90
2023-01-23T07:24:59.589Z,5.90
2023-01-23T07:27:29.179Z,5.90
2023-01-23T07:29:57.542Z,5.90
2023-01-23T07:32:25.689Z,5.90
2023-01-23T07:34:54.535Z,5.90
2023-01-23T07:37:22.738Z,5.90
2023-01-23T07:39:50.932Z,6.10
2023-01-23T07:42:19.120Z,5.90
2023-01-23T07:44:48.874Z,5.90
2023-01-23T07:47:17.052Z,5.90
2023-01-23T07:49:45.264Z,5.90
2023-01-23T07:52:13.627Z,5.90
2023-01-23T07:54:42.007Z,6.00
2023-01-23T07:57:10.259Z,6.00
2023-01-23T07:59:38.750Z,6.00
2023-01-23T08:02:10.921Z,6.00
2023-01-23T08:04:39.517Z,6.00
2023-01-23T08:07:07.874Z,6.00
2023-01-23T08:09:36.107Z,6.00
2023-01-23T08:12:04.513Z,6.10
2023-01-23T08:14:32.826Z,6.00
2023-01-23T08:17:01.616Z,6.00
2023-01-23T08:19:31.178Z,6.00
2023-01-23T08:21:59.384Z,6.10
2023-01-23T08:24:27.589Z,6.10
2023-01-23T08:26:55.728Z,6.10
2023-01-23T08:29:24.052Z,6.10
2023-01-23T08:31:54.966Z,6.10
2023-01-23T08:34:24.147Z,6.10
2023-01-23T08:36:53.696Z,6.10
2023-01-23T08:39:21.882Z,6.10
2023-01-23T08:41:50.067Z,6.10
2023-01-23T08:44:18.218Z,6.10
2023-01-23T08:46:47.159Z,6.10
2023-01-23T08:49:15.344Z,6.10
2023-01-23T08:51:43.580Z,6.10
2023-01-23T08:54:13.381Z,6.10
2023-01-23T08:56:42.154Z,6.10
2023-01-23T08:59:10.341Z,6.10
2023-01-23T09:01:38.696Z,6.10
2023-01-23T09:04:06.869Z,5.90
2023-01-23T09:06:35.242Z,6.20
2023-01-23T09:09:03.526Z,6.10
2023-01-23T09:11:33.099Z,6.20
2023-01-23T09:14:01.389Z,6.20
2023-01-23T09:16:29.656Z,6.20
2023-01-23T09:18:57.947Z,6.20
2023-01-23T09:21:26.194Z,6.20
2023-01-23T09:23:54.353Z,6.20
2023-01-23T09:26:22.730Z,6.20
2023-01-23T09:28:52.267Z,6.20
2023-01-23T09:31:20.844Z,6.20
2023-01-23T09:33:50.031Z,6.20
2023-01-23T09:36:18.265Z,6.20
2023-01-23T09:38:48.648Z,6.30
2023-01-23T09:41:20.186Z,6.30
2023-01-23T09:43:58.198Z,6.30
2023-01-23T09:46:29.917Z,6.30
2023-01-23T09:49:03.310Z,6.30
2023-01-23T09:51:42.624Z,6.30
2023-01-23T09:54:20.231Z,6.30
2023-01-23T09:56:50.335Z,6.30
2023-01-23T09:59:30.358Z,6.30
2023-01-23T10:01:58.700Z,6.30
2023-01-23T10:04:27.241Z,6.30
2023-01-23T10:07:19.398Z,6.30
2023-01-23T10:10:09.456Z,6.30
2023-01-23T10:12:45.143Z,6.30
2023-01-23T10:15:27.427Z,6.40
2023-01-23T10:18:05.781Z,6.40
2023-01-23T10:21:02.953Z,6.40
2023-01-23T10:23:58.594Z,6.30
2023-01-23T10:26:33.183Z,6.40
2023-01-23T10:29:11.229Z,6.30
2023-01-23T10:31:45.345Z,6.40
2023-01-23T10:34:22.860Z,6.40
2023-01-23T10:37:03.603Z,6.40
2023-01-23T10:39:44.095Z,6.40
2023-01-23T10:42:14.006Z,6.40
2023-01-23T10:44:42.169Z,6.40
2023-01-23T10:47:20.976Z,6.40
2023-01-23T10:49:49.404Z,6.40
2023-01-23T10:52:39.071Z,6.30
2023-01-23T10:55:28.587Z,6.50
2023-01-23T10:57:58.538Z,6.50
2023-01-23T11:00:34.404Z,6.80
2023-01-23T11:03:35.000Z,6.50
2023-01-23T11:06:07.344Z,6.50
2023-01-23T11:08:37.602Z,6.50
2023-01-23T11:11:22.805Z,6.50
2023-01-23T11:13:52.650Z,6.50
2023-01-23T11:16:23.878Z,6.50
2023-01-23T11:18:55.278Z,6.50
2023-01-23T11:21:28.730Z,6.50
2023-01-23T11:24:11.352Z,6.50
2023-01-23T11:26:39.899Z,6.60
2023-01-23T11:29:22.509Z,6.60
2023-01-23T11:31:56.907Z,6.60
2023-01-23T11:34:30.161Z,6.60
2023-01-23T11:37:07.833Z,6.60
2023-01-23T11:39:46.587Z,6.60
2023-01-23T11:42:15.999Z,6.60
2023-01-23T11:44:46.509Z,6.60
2023-01-23T11:47:44.639Z,6.60
2023-01-23T11:50:32.684Z,6.70
2023-01-23T11:53:14.584Z,6.70
2023-01-23T11:56:00.094Z,6.70
2023-01-23T11:59:04.487Z,6.70
2023-01-23T12:01:37.718Z,6.90
2023-01-23T12:04:36.051Z,6.70
2023-01-23T12:07:18.601Z,6.70
2023-01-23T12:09:56.641Z,6.70
2023-01-23T12:12:34.046Z,6.70
2023-01-23T12:15:07.590Z,6.70
2023-01-23T12:17:42.373Z,6.70
2023-01-23T12:20:25.392Z,6.70
2023-01-23T12:23:09.105Z,6.70
2023-01-23T12:25:40.938Z,6.70
2023-01-23T12:28:25.125Z,6.70
2023-01-23T12:31:05.684Z,6.70
2023-01-23T12:33:51.390Z,6.80
2023-01-23T12:37:06.250Z,6.80
2023-01-23T12:39:49.572Z,6.80
2023-01-23T12:42:25.251Z,6.80
2023-01-23T12:45:00.979Z,6.60
2023-01-23T12:47:34.464Z,6.70
2023-01-23T12:50:09.226Z,6.70
2023-01-23T12:52:42.143Z,6.70
2023-01-23T12:55:19.357Z,6.70
2023-01-23T12:58:00.007Z,6.70
2023-01-23T13:00:53.898Z,6.70
2023-01-23T13:03:47.480Z,6.80
2023-01-23T13:06:26.990Z,6.70
2023-01-23T13:09:12.020Z,6.70
2023-01-23T13:11:53.765Z,6.70
2023-01-23T13:15:06.927Z,6.70
2023-01-23T13:17:37.731Z,6.70
2023-01-23T13:20:43.414Z,6.70
2023-01-23T13:23:29.884Z,6.70
2023-01-23T13:26:29.074Z,6.70
2023-01-23T13:29:02.148Z,6.70
2023-01-23T13:32:12.887Z,7.00
2023-01-23T13:34:42.078Z,6.80
2023-01-23T13:37:50.996Z,6.80
2023-01-23T13:40:22.145Z,6.80
2023-01-23T13:42:50.803Z,6.80
2023-01-23T13:45:32.651Z,6.90
2023-01-23T14:23:53.781Z,6.90
2023-01-23T14:26:26.560Z,6.90
2023-01-23T14:28:57.444Z,6.90
2023-01-23T14:31:28.137Z,6.90
2023-01-23T14:34:09.829Z,6.90
2023-01-23T14:36:39.382Z,6.90
2023-01-23T14:39:09.022Z,6.90
2023-01-23T14:41:42.202Z,6.90
2023-01-23T14:44:18.639Z,6.90
2023-01-23T14:46:47.683Z,6.90
2023-01-23T14:49:18.622Z,6.90
2023-01-23T14:51:56.847Z,6.90
2023-01-23T14:54:32.553Z,6.90
2023-01-23T14:57:04.525Z,6.90
2023-01-23T14:59:36.952Z,6.90
2023-01-23T15:02:26.700Z,6.90
2023-01-23T15:05:19.230Z,6.90
2023-01-23T15:07:51.747Z,6.90
2023-01-23T15:10:24.133Z,6.90
2023-01-23T15:12:55.555Z,6.90
2023-01-23T15:15:26.171Z,6.90
2023-01-23T15:17:55.603Z,7.00
2023-01-23T15:20:33.022Z,7.00
2023-01-23T15:23:21.950Z,7.00
2023-01-23T15:26:09.135Z,6.90
2023-01-23T15:28:41.110Z,7.00
2023-01-23T15:31:27.649Z,6.90
2023-01-23T15:34:00.191Z,7.00
2023-01-23T15:36:31.129Z,7.00
2023-01-23T15:39:00.692Z,7.00
2023-01-23T15:41:46.525Z,7.00
2023-01-23T15:44:16.023Z,7.00
2023-01-23T15:46:45.815Z,7.00
2023-01-23T15:49:25.269Z,6.90
2023-01-23T15:51:56.780Z,7.00
2023-01-23T15:54:30.211Z,7.00
2023-01-23T15:57:07.518Z,7.00
2023-01-23T15:59:37.430Z,6.90
2023-01-23T16:02:05.707Z,7.20
2023-01-23T16:04:34.376Z,7.00
2023-01-23T16:07:07.319Z,7.00
2023-01-23T16:09:39.269Z,6.90
2023-01-23T16:12:16.027Z,6.90
2023-01-23T16:14:44.389Z,6.90
2023-01-23T16:17:17.073Z,6.90
2023-01-23T16:19:45.957Z,7.20
2023-01-23T16:22:18.932Z,6.90
2023-01-23T16:24:47.301Z,6.90
2023-01-23T16:27:19.104Z,6.90
2023-01-23T16:29:49.537Z,6.90
2023-01-23T16:32:18.148Z,6.90
2023-01-23T16:34:46.452Z,6.90
2023-01-23T16:37:17.393Z,6.90
2023-01-23T16:39:47.547Z,6.90
2023-01-23T16:42:22.518Z,6.90
2023-01-23T16:44:51.275Z,6.90
2023-01-23T16:47:19.749Z,6.90
2023-01-23T16:49:53.324Z,6.90
2023-01-23T16:52:26.158Z,6.80
2023-01-23T16:54:55.575Z,6.80
2023-01-23T16:57:25.832Z,6.90
2023-01-23T16:59:56.356Z,6.90
2023-01-23T17:02:30.258Z,6.80
2023-01-23T17:04:59.000Z,6.80
2023-01-23T17:07:28.640Z,6.80
2023-01-23T17:09:56.795Z,6.80
2023-01-23T17:12:29.413Z,6.80
2023-01-23T17:14:58.090Z,6.80
2023-01-23T17:17:31.127Z,6.80
2023-01-23T17:20:01.321Z,6.80
2023-01-23T17:22:31.457Z,6.80
2023-01-23T17:25:00.327Z,6.80
2023-01-23T17:27:30.224Z,7.10
2023-01-23T17:30:00.880Z,6.80
2023-01-23T17:32:35.376Z,6.80
2023-01-23T17:35:05.934Z,6.80
2023-01-23T17:37:35.568Z,6.80
2023-01-23T17:40:04.328Z,6.80
2023-01-23T17:42:34.199Z,6.80
2023-01-23T17:45:02.703Z,6.80
2023-01-23T17:47:31.660Z,6.80
2023-01-23T17:50:01.305Z,6.80
2023-01-23T17:52:30.004Z,6.80
2023-01-23T17:54:58.205Z,6.80
2023-01-23T17:57:26.408Z,6.70
2023-01-23T17:59:56.706Z,6.70
2023-01-23T18:02:28.521Z,6.70
2023-01-23T18:04:56.978Z,6.70
2023-01-23T18:07:27.248Z,6.70
2023-01-23T18:09:56.251Z,6.80
2023-01-23T18:12:33.346Z,6.80
2023-01-23T18:15:10.117Z,6.80
2023-01-23T18:17:45.370Z,6.80
2023-01-23T18:20:19.247Z,6.80
2023-01-23T18:22:48.068Z,6.80
2023-01-23T18:25:18.726Z,6.70
2023-01-23T18:27:50.235Z,6.70
2023-01-23T18:30:35.238Z,6.70
2023-01-23T18:33:21.021Z,6.70
2023-01-23T18:36:05.670Z,6.70
2023-01-23T18:38:40.546Z,6.70
2023-01-23T18:41:17.394Z,6.80
2023-01-23T18:43:51.674Z,6.70
2023-01-23T18:46:24.012Z,6.70
2023-01-23T18:48:53.233Z,6.70
2023-01-23T18:51:40.542Z,6.80
2023-01-23T18:54:21.251Z,6.80
2023-01-23T18:56:58.877Z,6.80
2023-01-23T18:59:35.775Z,6.80
2023-01-23T19:02:20.297Z,6.80
2023-01-23T19:04:55.920Z,6.80
2023-01-23T19:07:24.724Z,6.80
2023-01-23T19:09:53.475Z,6.70
2023-01-23T19:12:31.086Z,6.80
2023-01-23T19:15:22.701Z,6.80
2023-01-23T19:17:57.973Z,6.80
2023-01-23T19:20:32.946Z,6.80
2023-01-23T19:23:17.049Z,6.80
2023-01-23T19:25:48.000Z,6.70
2023-01-23T19:28:16.715Z,6.80
2023-01-23T19:30:45.601Z,6.80
2023-01-23T19:33:16.874Z,6.80
2023-01-23T19:35:45.330Z,6.80
2023-01-23T19:38:14.917Z,6.80
2023-01-23T19:40:43.576Z,6.80
2023-01-23T19:43:16.151Z,6.80
2023-01-23T19:45:44.911Z,6.80
2023-01-23T19:48:15.005Z,6.80
2023-01-23T19:50:43.828Z,6.80
2023-01-23T19:53:14.419Z,6.80
2023-01-23T19:55:42.804Z,6.80
2023-01-23T19:58:11.005Z,6.80
2023-01-23T20:00:39.203Z,6.80
2023-01-23T20:03:07.676Z,6.80
2023-01-23T20:05:37.265Z,6.80
2023-01-23T20:08:05.630Z,6.80
2023-01-23T20:10:33.846Z,6.80
2023-01-23T20:13:02.767Z,6.80
2023-01-23T20:15:31.118Z,6.90
2023-01-23T20:17:59.401Z,6.80
2023-01-23T20:20:27.705Z,6.80
2023-01-23T20:22:57.254Z,6.90
2023-01-23T20:25:25.581Z,6.80
2023-01-23T20:27:53.777Z,6.80
2023-01-23T20:30:23.027Z,6.80
2023-01-23T20:32:51.571Z,6.80
2023-01-23T20:35:19.921Z,6.90
2023-01-23T20:37:48.219Z,6.90
2023-01-23T20:40:18.501Z,6.90
2023-01-23T20:42:48.201Z,7.10
2023-01-23T20:45:16.727Z,6.90
2023-01-23T20:47:45.185Z,6.90
2023-01-23T20:50:14.246Z,6.90
2023-01-23T20:53:08.724Z,6.90
2023-01-23T20:55:48.183Z,6.80
2023-01-23T20:58:37.076Z,6.90
2023-01-23T21:01:06.173Z,6.90
2023-01-23T21:03:38.602Z,6.90
2023-01-23T21:06:07.646Z,6.80
2023-01-23T21:08:37.799Z,6.80
2023-01-23T21:11:12.847Z,6.80
2023-01-23T21:13:44.894Z,6.80
2023-01-23T21:16:14.918Z,6.80
2023-01-23T21:18:46.259Z,6.80
2023-01-23T21:21:16.608Z,6.90
2023-01-23T21:23:46.899Z,6.80
2023-01-23T21:26:17.093Z,6.80
2023-01-23T21:28:47.502Z,6.80
2023-01-23T21:31:18.479Z,6.90
2023-01-23T21:33:47.647Z,6.80
2023-01-23T21:36:18.285Z,6.80
2023-01-23T21:38:46.957Z,6.90
2023-01-23T21:41:16.905Z,6.90
2023-01-23T21:43:45.643Z,6.90
2023-01-23T21:46:14.557Z,6.80
2023-01-23T21:48:43.191Z,6.90
2023-01-23T21:51:13.406Z,6.90
2023-01-23T21:53:43.972Z,6.90
2023-01-23T21:56:13.956Z,6.90
2023-01-23T21:58:43.732Z,6.90
2023-01-23T22:01:31.978Z,7.10
2023-01-23T22:04:01.279Z,7.10
2023-01-23T22:06:30.065Z,6.90
2023-01-23T22:08:59.068Z,6.90
2023-01-23T22:11:27.914Z,6.90
2023-01-23T22:13:57.840Z,6.90
2023-01-23T22:16:46.339Z,6.90
2023-01-23T22:19:15.871Z,6.90
2023-01-23T22:21:46.341Z,6.90
2023-01-23T22:24:15.334Z,6.90
2023-01-23T22:26:43.817Z,6.70
2023-01-23T22:29:14.885Z,6.90
2023-01-23T22:31:43.963Z,6.90
2023-01-23T22:34:12.355Z,6.90
2023-01-23T22:36:40.657Z,6.90
2023-01-23T22:39:09.292Z,6.90
2023-01-23T22:41:37.497Z,6.90
2023-01-23T22:44:05.750Z,7.00
2023-01-23T22:46:35.662Z,7.20
2023-01-23T22:49:04.076Z,6.90
2023-01-23T22:51:32.474Z,6.90
2023-01-23T22:54:00.893Z,6.90
2023-01-23T22:56:29.984Z,6.90
2023-01-23T22:59:01.056Z,6.90
2023-01-23T23:01:30.058Z,6.90
2023-01-23T23:04:00.904Z,7.20
2023-01-23T23:06:29.713Z,6.90
2023-01-23T23:08:58.109Z,7.00
2023-01-23T23:11:28.206Z,6.90
2023-01-23T23:13:58.032Z,6.90
2023-01-23T23:16:27.920Z,6.90
2023-01-23T23:18:58.305Z,7.00
2023-01-23T23:21:30.404Z,6.90
2023-01-23T23:23:59.530Z,6.90
2023-01-23T23:26:30.074Z,7.10
2023-01-23T23:28:58.977Z,6.90
2023-01-23T23:31:27.381Z,7.00
2023-01-23T23:33:55.604Z,7.10
2023-01-23T23:36:24.338Z,7.00
2023-01-23T23:38:53.822Z,6.90
2023-01-23T23:41:21.992Z,7.00
2023-01-23T23:43:50.193Z,6.90
2023-01-23T23:46:18.750Z,6.90
2023-01-23T23:48:48.095Z,7.00
2023-01-23T23:51:18.665Z,7.30
2023-01-23T23:53:47.383Z,6.90
2023-01-23T23:56:21.188Z,6.90
2023-01-23T23:58:49.700Z,6.90
